createdAt,value
2019-04-22T04:03:09.568Z,35.82
2019-04-22T04:05:01.131Z,36.41
2019-04-22T04:09:14.306Z,36.51
2019-04-22T04:13:08.469Z,36.29
2019-04-22T04:15:21.068Z,36.08
2019-04-22T04:21:22.928Z,36.27
2019-04-22T04:23:08.742Z,36.25
2019-04-22T04:25:29.474Z,36.07
2019-04-22T04:27:37.015Z,35.75
2019-04-22T04:29:21.376Z,35.95
2019-04-22T04:31:09.867Z,34.83
2019-04-22T04:39:10.930Z,35.22
2019-04-22T04:41:10.846Z,35.00
2019-04-22T04:43:16.305Z,34.91
2019-04-22T04:47:27.307Z,35.11
2019-04-22T04:51:16.554Z,34.56
2019-04-22T04:55:10.024Z,34.67
2019-04-22T04:56:57.117Z,34.85
2019-04-22T05:01:16.688Z,34.25
2019-04-22T05:03:10.578Z,34.64
2019-04-22T05:05:14.397Z,34.43
2019-04-22T05:07:08.707Z,34.74
2019-04-22T05:13:12.469Z,33.61
2019-04-22T05:15:06.418Z,33.69
2019-04-22T05:17:02.299Z,33.18
2019-04-22T05:18:58.646Z,33.88
2019-04-22T05:23:21.873Z,32.11
2019-04-22T05:25:02.328Z,31.96
2019-04-22T05:27:08.682Z,29.74
2019-04-22T05:28:57.865Z,29.62
2019-04-22T05:30:58.900Z,28.45
2019-04-22T05:32:58.653Z,28.21
2019-04-22T05:34:52.941Z,28.19
2019-04-22T05:36:57.095Z,28.05
2019-04-22T05:39:01.831Z,26.34
2019-04-22T05:40:56.603Z,23.33
2019-04-22T05:42:56.396Z,22.05
2019-04-22T05:45:00.760Z,22.01
2019-04-22T05:46:52.761Z,21.09
2019-04-22T05:49:03.938Z,21.63
2019-04-22T05:50:57.928Z,20.73
2019-04-22T05:52:57.272Z,20.61
2019-04-22T05:54:54.860Z,20.69
2019-04-22T05:56:51.409Z,20.57
2019-04-22T05:58:58.798Z,20.55
2019-04-22T06:01:19.862Z,20.35
2019-04-22T06:02:58.456Z,20.62
2019-04-22T06:05:00.306Z,20.61
2019-04-22T06:06:57.184Z,20.40
2019-04-22T06:09:02.255Z,20.30
2019-04-22T06:11:06.022Z,20.19
2019-04-22T06:12:52.403Z,21.28
2019-04-22T06:14:54.352Z,21.17
2019-04-22T06:17:01.220Z,21.45
2019-04-22T06:19:00.368Z,21.45
2019-04-22T06:21:00.499Z,21.16
2019-04-22T06:22:58.451Z,21.44
2019-04-22T06:24:55.404Z,21.24
2019-04-22T06:27:01.672Z,21.43
2019-04-22T06:28:54.734Z,21.14
2019-04-22T06:30:57.307Z,21.14
2019-04-22T06:33:00.907Z,21.13
2019-04-22T06:34:58.097Z,21.33
2019-04-22T06:37:05.389Z,21.04
2019-04-22T06:38:55.268Z,21.64
2019-04-22T06:40:54.048Z,21.16
2019-04-22T06:42:58.021Z,21.36
2019-04-22T06:44:58.002Z,21.73
2019-04-22T06:46:53.685Z,20.85
2019-04-22T06:48:55.115Z,21.13
2019-04-22T06:50:55.392Z,21.23
2019-04-22T06:52:59.950Z,21.12
2019-04-22T06:54:54.251Z,21.33
2019-04-22T06:56:54.698Z,21.72
2019-04-22T06:58:52.279Z,21.64
2019-04-22T07:00:52.105Z,22.13
2019-04-22T07:03:18.967Z,22.06
2019-04-22T07:04:56.299Z,22.93
2019-04-22T07:07:02.219Z,23.14
2019-04-22T07:10:50.889Z,23.45
2019-04-22T07:12:54.261Z,22.97
2019-04-22T07:15:21.881Z,23.39
2019-04-22T07:16:56.134Z,24.07
2019-04-22T07:18:56.783Z,23.80
2019-04-22T07:20:57.363Z,23.82
2019-04-22T07:22:51.322Z,24.99
2019-04-22T07:24:53.775Z,24.51
2019-04-22T07:27:00.502Z,24.41
2019-04-22T07:28:56.400Z,25.32
2019-04-22T07:30:53.216Z,25.44
2019-04-22T07:35:01.137Z,25.98
2019-04-22T07:36:58.798Z,26.37
2019-04-22T07:38:47.182Z,25.99
2019-04-22T07:41:08.353Z,26.18
2019-04-22T07:43:00.031Z,25.99
2019-04-22T07:45:01.093Z,26.07
2019-04-22T07:46:56.505Z,26.48
2019-04-22T07:49:21.603Z,26.79
2019-04-22T07:51:02.866Z,26.89
2019-04-22T07:52:51.988Z,26.50
2019-04-22T07:54:53.738Z,26.98
2019-04-22T07:57:07.507Z,27.18
2019-04-22T07:58:56.874Z,27.18
2019-04-22T08:00:55.347Z,26.98
2019-04-22T08:03:14.597Z,27.07
2019-04-22T08:05:07.468Z,27.26
2019-04-22T08:06:57.301Z,27.37
2019-04-22T08:09:00.246Z,28.16
2019-04-22T08:10:56.736Z,28.06
2019-04-22T08:12:51.950Z,27.97
2019-04-22T08:14:53.617Z,28.08
2019-04-22T08:17:01.016Z,27.98
2019-04-22T08:18:59.863Z,27.78
2019-04-22T08:20:56.691Z,28.77
2019-04-22T08:23:01.172Z,28.27
2019-04-22T08:24:56.142Z,28.67
2019-04-22T08:26:56.074Z,28.37
2019-04-22T08:29:03.399Z,28.27
2019-04-22T08:30:56.622Z,28.37
2019-04-22T08:32:52.925Z,28.67
2019-04-22T08:34:46.954Z,28.88
2019-04-22T08:39:03.840Z,28.88
2019-04-22T08:40:56.123Z,29.17
2019-04-22T08:42:58.346Z,29.28
2019-04-22T08:45:08.001Z,28.99
2019-04-22T08:46:57.926Z,29.20
2019-04-22T08:50:57.717Z,29.00
2019-04-22T08:53:00.614Z,29.00
2019-04-22T08:55:01.858Z,29.20
2019-04-22T08:58:57.030Z,28.79
2019-04-22T09:00:58.254Z,28.99
2019-04-22T09:02:55.213Z,29.30
2019-04-22T09:04:53.686Z,29.10
2019-04-22T09:08:54.197Z,29.00
2019-04-22T09:10:59.970Z,29.20
2019-04-22T09:13:03.623Z,29.20
2019-04-22T09:15:03.953Z,29.10
2019-04-22T09:16:49.805Z,29.10
2019-04-22T09:18:53.793Z,29.20
2019-04-22T09:21:01.132Z,28.99
2019-04-22T09:22:56.896Z,29.09
2019-04-22T09:24:54.055Z,29.19
2019-04-22T09:26:59.923Z,29.28
2019-04-22T09:28:59.894Z,28.99
2019-04-22T09:30:55.611Z,28.79
2019-04-22T09:32:55.736Z,28.58
2019-04-22T09:34:51.703Z,28.97
2019-04-22T09:36:58.245Z,28.88
2019-04-22T09:39:09.497Z,29.07
2019-04-22T09:40:52.139Z,29.17
2019-04-22T09:43:10.131Z,28.97
2019-04-22T09:46:56.924Z,28.97
2019-04-22T09:49:01.667Z,29.16
2019-04-22T09:50:57.512Z,29.17
2019-04-22T09:52:55.913Z,28.86
2019-04-22T09:55:00.193Z,28.97
2019-04-22T09:57:00.074Z,29.17
2019-04-22T10:01:02.999Z,28.97
2019-04-22T10:03:00.530Z,29.07
2019-04-22T10:04:54.116Z,28.97
2019-04-22T10:06:50.182Z,29.17
2019-04-22T10:11:00.735Z,28.88
2019-04-22T10:12:59.468Z,28.37
2019-04-22T10:16:53.972Z,28.78
2019-04-22T10:18:52.067Z,28.39
2019-04-22T10:20:57.231Z,28.49
2019-04-22T10:22:54.745Z,28.78
2019-04-22T10:24:54.970Z,29.27
2019-04-22T10:26:55.391Z,29.17
2019-04-22T10:29:01.086Z,28.88
2019-04-22T10:30:52.196Z,28.88
2019-04-22T10:32:48.201Z,28.88
2019-04-22T10:34:37.882Z,29.27
2019-04-22T10:36:27.821Z,29.09
2019-04-22T10:38:26.463Z,28.89
2019-04-22T10:40:25.994Z,28.30
2019-04-22T10:42:27.125Z,28.70
2019-04-22T10:44:27.053Z,28.70
2019-04-22T10:46:26.356Z,28.33
2019-04-22T10:48:26.248Z,28.33
2019-04-22T10:50:25.897Z,28.44
2019-04-22T10:52:25.875Z,28.24
2019-04-22T10:54:27.252Z,29.23
2019-04-22T10:56:27.118Z,28.52
2019-04-22T10:58:26.672Z,28.52
2019-04-22T11:00:27.241Z,28.52
2019-04-22T11:02:25.804Z,28.23
2019-04-22T11:04:26.076Z,28.41
2019-04-22T11:06:25.713Z,28.91
2019-04-22T11:08:33.954Z,29.30
2019-04-22T11:10:36.817Z,28.91
2019-04-22T11:12:30.425Z,28.91
2019-04-22T11:14:26.681Z,29.00
2019-04-22T11:16:25.747Z,28.22
2019-04-22T11:18:25.613Z,29.20
2019-04-22T11:20:26.014Z,28.91
2019-04-22T11:22:31.249Z,29.49
2019-04-22T11:24:26.783Z,28.91
2019-04-22T11:26:25.937Z,29.30
2019-04-22T11:28:25.633Z,29.39
2019-04-22T11:30:27.973Z,29.59
2019-04-22T11:32:26.638Z,29.39
2019-04-22T11:34:26.830Z,29.30
2019-04-22T11:36:28.649Z,29.48
2019-04-22T11:38:26.776Z,29.58
2019-04-22T11:40:32.629Z,29.38
2019-04-22T11:42:26.352Z,29.28
2019-04-22T11:44:25.465Z,29.17
2019-04-22T11:46:25.460Z,28.96
2019-04-22T11:48:25.316Z,28.47
2019-04-22T11:50:26.115Z,28.47
2019-04-22T11:52:26.761Z,29.35
2019-04-22T11:54:25.242Z,29.25
2019-04-22T11:56:25.321Z,29.35
2019-04-22T11:58:26.488Z,29.27
2019-04-22T12:00:25.226Z,29.55
2019-04-22T12:02:25.453Z,29.17
2019-04-22T12:04:25.640Z,28.97
2019-04-22T12:06:26.282Z,28.78
2019-04-22T12:08:25.231Z,29.17
2019-04-22T12:10:32.800Z,29.16
2019-04-22T12:12:27.716Z,29.16
2019-04-22T12:14:25.706Z,29.16
2019-04-22T12:16:25.502Z,28.86
2019-04-22T12:18:25.048Z,29.16
2019-04-22T12:20:25.483Z,29.16
2019-04-22T12:22:25.159Z,29.06
2019-04-22T12:24:25.067Z,29.16
2019-04-22T12:26:25.641Z,28.96
2019-04-22T12:28:24.866Z,29.35
2019-04-22T12:30:25.594Z,29.55
2019-04-22T12:32:25.383Z,29.35
2019-04-22T12:34:25.763Z,29.85
2019-04-22T12:36:24.829Z,29.94
2019-04-22T12:38:24.769Z,29.85
2019-04-22T12:40:34.376Z,29.64
2019-04-22T12:42:27.121Z,29.66
2019-04-22T12:44:26.504Z,29.66
2019-04-22T12:46:26.070Z,29.55
2019-04-22T12:48:25.443Z,29.64
2019-04-22T12:50:29.889Z,29.94
2019-04-22T12:52:34.008Z,29.93
2019-04-22T12:54:26.905Z,29.73
2019-04-22T12:56:25.838Z,29.83
2019-04-22T12:58:25.578Z,29.91
2019-04-22T13:00:24.740Z,29.82
2019-04-22T13:02:25.144Z,29.93
2019-04-22T13:04:25.221Z,29.63
2019-04-22T13:06:25.737Z,29.44
2019-04-22T13:08:25.453Z,29.53
2019-04-22T13:10:24.450Z,29.85
2019-04-22T13:12:24.831Z,29.44
2019-04-22T13:14:25.088Z,29.35
2019-04-22T13:16:25.011Z,29.53
2019-04-22T13:18:35.271Z,29.53
2019-04-22T13:20:26.220Z,29.53
2019-04-22T13:22:25.057Z,29.93
2019-04-22T13:24:25.779Z,29.44
2019-04-22T13:26:25.433Z,30.22
2019-04-22T13:28:25.187Z,29.53
2019-04-22T13:30:24.213Z,30.01
2019-04-22T13:32:25.017Z,30.01
2019-04-22T13:34:31.652Z,30.01
2019-04-22T13:36:27.637Z,29.82
2019-04-22T13:38:25.007Z,29.43
2019-04-22T13:40:25.176Z,30.11
2019-04-22T13:42:25.350Z,30.11
2019-04-22T13:44:25.048Z,30.01
2019-04-22T13:46:24.106Z,30.02
2019-04-22T13:48:40.009Z,30.02
2019-04-22T13:50:56.419Z,29.73
2019-04-22T13:52:56.643Z,29.93
2019-04-22T13:54:53.408Z,30.12
2019-04-22T13:56:46.547Z,30.12
2019-04-22T13:58:42.408Z,29.93
2019-04-22T14:00:25.006Z,29.72
2019-04-22T14:02:24.388Z,29.93
2019-04-22T14:04:24.760Z,30.42
2019-04-22T14:06:25.060Z,30.12
2019-04-22T14:08:24.974Z,30.33
2019-04-22T14:10:24.822Z,30.12
2019-04-22T14:12:24.643Z,30.04
2019-04-22T14:14:24.052Z,30.04
2019-04-22T14:16:24.809Z,30.14
2019-04-22T14:18:24.969Z,30.14
2019-04-22T14:20:25.914Z,30.22
2019-04-22T14:22:24.680Z,30.14
2019-04-22T14:24:23.849Z,30.33
2019-04-22T14:26:25.005Z,30.14
2019-04-22T14:28:25.060Z,30.22
2019-04-22T14:30:24.447Z,30.02
2019-04-22T14:34:26.413Z,29.94
2019-04-22T14:36:23.548Z,30.04
2019-04-22T14:38:23.904Z,30.24
2019-04-22T14:40:26.258Z,30.93
2019-04-22T14:42:49.343Z,30.63
2019-04-22T14:44:23.229Z,30.12
2019-04-22T14:45:15.442Z,30.74
2019-04-22T14:46:58.760Z,30.74
2019-04-22T14:48:50.175Z,30.94
2019-04-22T14:50:45.294Z,30.74
2019-04-22T14:52:49.139Z,31.13
2019-04-22T14:54:38.719Z,30.93
2019-04-22T14:56:24.413Z,31.02
2019-04-22T14:58:24.581Z,30.63
2019-04-22T15:00:24.076Z,30.33
2019-04-22T15:02:23.687Z,30.93
2019-04-22T15:04:23.484Z,30.94
2019-04-22T15:06:24.264Z,30.94
2019-04-22T15:08:24.677Z,31.13
2019-04-22T15:10:24.305Z,30.84
2019-04-22T15:12:31.236Z,30.94
2019-04-22T15:14:25.486Z,30.85
2019-04-22T15:16:23.774Z,31.05
2019-04-22T15:18:23.958Z,30.66
2019-04-22T15:20:23.737Z,30.58
2019-04-22T15:22:23.051Z,30.68
2019-04-22T15:24:23.055Z,30.68
2019-04-22T15:26:24.345Z,30.77
2019-04-22T15:28:23.765Z,30.97
2019-04-22T15:30:23.555Z,30.88
2019-04-22T15:32:23.233Z,31.09
2019-04-22T15:34:22.935Z,31.09
2019-04-22T15:36:24.139Z,30.69
2019-04-22T15:38:24.346Z,31.10
2019-04-22T15:40:22.858Z,31.20
2019-04-22T15:42:28.847Z,31.20
2019-04-22T15:44:24.112Z,31.10
2019-04-22T15:46:23.530Z,30.80
2019-04-22T15:48:23.272Z,31.21
2019-04-22T15:50:22.740Z,31.21
2019-04-22T15:52:31.194Z,31.42
2019-04-22T15:54:23.730Z,31.72
2019-04-22T15:56:22.993Z,31.42
2019-04-22T15:58:23.863Z,31.54
2019-04-22T16:00:36.778Z,31.24
2019-04-22T16:02:23.674Z,31.35
2019-04-22T16:04:22.923Z,31.95
2019-04-22T16:06:23.697Z,31.65
2019-04-22T16:08:22.590Z,31.76
2019-04-22T16:10:23.836Z,32.28
2019-04-22T16:12:30.822Z,31.98
2019-04-22T16:14:31.171Z,32.68
2019-04-22T16:16:24.682Z,32.39
2019-04-22T16:18:22.627Z,32.50
2019-04-22T16:20:23.310Z,33.20
2019-04-22T16:22:24.939Z,33.11
2019-04-22T16:24:22.637Z,32.92
2019-04-22T16:26:22.417Z,32.53
2019-04-22T16:28:22.346Z,32.73
2019-04-22T16:30:23.545Z,32.75
2019-04-22T16:32:23.349Z,32.86
2019-04-22T16:34:23.712Z,32.56
2019-04-22T16:36:22.747Z,33.07
2019-04-22T16:38:22.576Z,33.67
2019-04-22T16:40:22.832Z,33.49
2019-04-22T16:42:33.269Z,33.90
2019-04-22T16:44:24.752Z,33.80
2019-04-22T16:46:23.464Z,33.33
2019-04-22T16:48:22.169Z,33.44
2019-04-22T16:50:23.105Z,33.83
2019-04-22T16:52:22.085Z,33.85
2019-04-22T16:54:22.241Z,33.45
2019-04-22T16:56:22.535Z,33.97
2019-04-22T16:58:23.127Z,33.78
2019-04-22T17:00:22.612Z,33.69
2019-04-22T17:02:22.345Z,34.10
2019-04-22T17:04:22.897Z,34.30
2019-04-22T17:06:23.350Z,33.60
2019-04-22T17:08:22.201Z,33.90
2019-04-22T17:10:21.959Z,33.80
2019-04-22T17:12:21.913Z,33.70
2019-04-22T17:14:29.702Z,33.80
2019-04-22T17:16:24.347Z,33.72
2019-04-22T17:18:22.997Z,33.72
2019-04-22T17:20:22.946Z,33.73
2019-04-22T17:22:21.844Z,33.83
2019-04-22T17:24:21.796Z,33.53
2019-04-22T17:26:21.784Z,33.65
2019-04-22T17:28:21.712Z,34.15
2019-04-22T17:30:22.265Z,34.15
2019-04-22T17:32:24.518Z,33.97
2019-04-22T17:34:21.636Z,34.16
2019-04-22T17:36:22.380Z,33.98
2019-04-22T17:38:31.028Z,34.48
2019-04-22T17:40:38.634Z,34.20
2019-04-22T17:42:42.372Z,34.50
2019-04-22T17:44:54.248Z,34.50
2019-04-22T17:46:35.951Z,34.51
2019-04-22T17:48:48.640Z,34.31
2019-04-22T17:50:46.785Z,34.21
2019-04-22T17:52:42.335Z,34.31
2019-04-22T17:54:41.850Z,34.43
2019-04-22T17:56:43.429Z,34.73
2019-04-22T17:58:47.876Z,34.64
2019-04-22T18:00:43.389Z,34.34
2019-04-22T18:02:39.717Z,34.26
2019-04-22T18:04:23.419Z,34.44
2019-04-22T18:06:52.287Z,34.56
2019-04-22T18:08:40.518Z,34.46
2019-04-22T18:10:40.534Z,34.38
2019-04-22T18:12:53.430Z,34.18
2019-04-22T18:16:41.269Z,34.69
2019-04-22T18:18:43.393Z,34.71
2019-04-22T18:20:34.681Z,34.61
2019-04-22T18:22:37.265Z,34.71
2019-04-22T18:24:32.475Z,34.71
2019-04-22T18:26:44.712Z,34.83
2019-04-22T18:28:44.748Z,34.93
2019-04-22T18:30:34.746Z,34.64
2019-04-22T18:32:42.512Z,34.64
2019-04-22T18:34:35.158Z,34.76
2019-04-22T18:36:38.752Z,34.86
2019-04-22T18:38:52.621Z,34.36
2019-04-22T18:40:38.509Z,34.38
2019-04-22T18:42:41.764Z,34.38
2019-04-22T18:44:45.881Z,35.19
2019-04-22T18:46:43.930Z,35.48
2019-04-22T18:48:46.415Z,35.30
2019-04-22T18:52:47.095Z,35.31
2019-04-22T18:54:41.050Z,35.51
2019-04-22T18:56:45.203Z,35.51
2019-04-22T18:58:36.675Z,35.51
2019-04-22T19:00:23.325Z,35.53
2019-04-22T19:02:24.676Z,35.23
2019-04-22T19:04:27.704Z,35.33
2019-04-22T19:06:46.237Z,34.42
2019-04-22T19:08:48.147Z,34.22
2019-04-22T19:10:51.825Z,34.63
2019-04-22T19:12:52.624Z,34.53
2019-04-22T19:14:54.938Z,35.05
2019-04-22T19:17:07.385Z,34.84
2019-04-22T19:18:50.153Z,34.94
2019-04-22T19:20:49.798Z,35.14
2019-04-22T19:22:43.841Z,35.05
2019-04-22T19:24:40.045Z,35.06
2019-04-22T19:26:50.271Z,34.96
2019-04-22T20:20:02.797Z,34.79
2019-04-22T20:39:11.010Z,34.82
2019-04-22T20:50:29.788Z,34.84
2019-04-22T20:52:32.661Z,34.44
2019-04-22T20:54:17.795Z,33.92
2019-04-22T20:56:18.694Z,34.94
2019-04-22T20:58:21.334Z,34.94
2019-04-22T21:00:15.439Z,34.42
2019-04-22T21:02:15.337Z,34.32
2019-04-22T21:04:03.474Z,34.64
2019-04-22T21:06:16.394Z,34.52
2019-04-22T21:08:20.861Z,34.32
2019-04-22T21:10:15.895Z,34.01
2019-04-22T21:12:13.714Z,34.44
2019-04-22T21:14:17.777Z,34.13
2019-04-22T21:16:21.743Z,34.54
2019-04-22T21:18:15.660Z,34.44
2019-04-22T21:20:26.168Z,34.44
2019-04-22T21:22:22.692Z,34.54
2019-04-22T21:24:18.587Z,33.93
2019-04-22T21:26:21.324Z,33.75
2019-04-22T21:28:23.014Z,33.53
2019-04-22T21:30:19.468Z,33.95
2019-04-22T21:32:17.641Z,34.05
2019-04-22T21:34:19.562Z,34.05
2019-04-22T21:36:25.381Z,34.25
2019-04-22T21:38:21.322Z,34.06
2019-04-22T21:40:19.890Z,34.27
2019-04-22T21:42:15.598Z,34.27
2019-04-22T21:44:18.477Z,34.17
2019-04-22T21:46:19.312Z,34.27
2019-04-22T21:48:26.317Z,34.17
2019-04-22T21:50:36.075Z,34.47
2019-04-22T21:52:21.481Z,34.48
2019-04-22T21:54:22.106Z,34.18
2019-04-22T21:56:34.668Z,34.08
2019-04-22T21:58:17.773Z,34.69
2019-04-22T22:00:31.617Z,34.59
2019-04-22T22:02:25.684Z,34.40
2019-04-22T22:04:23.617Z,34.50
2019-04-22T22:06:09.239Z,34.60
2019-04-22T22:08:23.103Z,34.60
2019-04-22T22:10:14.999Z,34.70
2019-04-22T22:12:17.378Z,34.30
2019-04-22T22:14:19.575Z,34.00
2019-04-22T22:16:14.735Z,33.69
2019-04-22T22:18:16.448Z,33.91
2019-04-22T22:20:14.767Z,34.01
2019-04-22T22:22:40.226Z,34.01
2019-04-22T22:24:22.942Z,33.71
2019-04-22T22:26:17.315Z,33.61
2019-04-22T22:28:34.845Z,34.43
2019-04-22T22:30:38.051Z,33.83
2019-04-22T22:32:25.697Z,33.72
2019-04-22T22:34:16.700Z,33.72
2019-04-22T22:36:13.642Z,34.13
2019-04-22T22:38:19.575Z,34.13
2019-04-22T22:40:05.539Z,33.64
2019-04-22T22:41:57.811Z,33.64
2019-04-22T22:44:03.294Z,33.94
2019-04-22T22:46:12.017Z,33.64
2019-04-22T22:48:24.099Z,34.14
2019-04-22T22:50:20.379Z,33.94
2019-04-22T22:53:36.853Z,33.33
2019-04-22T22:55:28.930Z,33.44
2019-04-22T22:57:33.432Z,33.54
2019-04-22T22:59:36.183Z,33.45
2019-04-22T23:01:31.465Z,33.94
2019-04-22T23:03:45.966Z,33.55
2019-04-22T23:05:34.063Z,33.65
2019-04-22T23:07:38.961Z,33.45
2019-04-22T23:09:28.871Z,33.65
2019-04-22T23:11:47.674Z,33.55
2019-04-22T23:13:33.173Z,33.67
2019-04-22T23:15:25.696Z,33.47
2019-04-22T23:17:14.546Z,33.67
2019-04-22T23:19:10.747Z,33.37
2019-04-22T23:21:15.992Z,33.67
2019-04-22T23:23:31.407Z,33.48
2019-04-22T23:25:27.375Z,33.69
2019-04-22T23:27:26.165Z,33.57
2019-04-22T23:29:20.881Z,33.18
